Huvudsida
METAR-TAF:

METAR-TAF

Flygplatser :

Kairos internationella flygplats

Kairo, Egypten

latitud: 30-08N, longitud: 031-24E, höjd: 64 m

Aktuellt väderrapport

Denna rapport gjordes för 22 minuter sedan, klockan 01:30 UTC
Vind 3 kt från ost/nordost
Temperatur 26°C
Fuktighet 74%
Tryck 1008 hPa
Sikt 10 km eller mer
Inga moln under 1 500 m eller inga cumulonimbus

METAR: HECA 190130Z 07003KT CAVOK 26/21 Q1008 NOSIG

Tid: 03:52 (01:52 UTC)

Väderprognos

Denna rapport gjordes för 2 timmar och 52 minuter sedan, klockan 23:00 UTC
Prognos gäller från 19 kl. 00 UTC till 20 kl. 06 UTC
Vind 8 kt från nord/nordväst
Sikt 10 km eller mer
Spridda moln på en höjd av 2500 ft
Temporärt
från 19 kl. 02 UTC till 19 kl. 08 UTC
Vind 3 kt varierande vindriktning
Sikt: 4000 m
fuktdis

TAF: HECA 182300Z 1900/2006 34008KT 9999 SCT025 TEMPO 1902/1908 VRB03KT 4000 BR NSC

Aktuella väderrapporter och prognoser från 4000 flygplatser (METAR- och TAF-rapporter).

De tillgängliga stationerna syns som gula och röda prickar på kartan.

För musen över prickarna för att se namnen på stationerna.

Klicka sedan för att få väderrapporter och prognoser.

För att ändra kartan: Klicka på de gröna knapparna med ett svart kors på för att zooma in; den gröna knappen med ett streck på för att zooma ut; eller på de gröna pilarna för angränsande kartor.


METAR-TAF: